Terminal Aerodrome Forecast
Issued by NWS Quad Cities IA IL

Home | Current Version | Previous Version | Text Only | Print | Product List | Glossary On
Versions: 1 2 3 4 5 6 7 8 9 10 11 12 13 14 15 16 17 18 19 20 21
000
FTUS43 KDVN 160500 AAA
TAFMLI
TAF AMD
KMLI 160508Z 1605/1624 VRB06KT 2SM -RADZ BR OVC004
     FM161000 30012KT 3SM -RA BR OVC006
     FM161300 30015G23KT 3SM -RASN BR OVC008
     FM161600 30017G25KT 6SM BR OVC012
     FM161900 30017G27KT P6SM OVC020=

USA.gov is the U.S. government's official web portal to all federal, state and local government web resources and services.